Latest Weather Observations for Noonamah

IDD60801

Issued at 6:31 am CST Saturday 28 February 2015 (issued every 30 minutes, with the page automatically refreshed every 10 minutes)

About weather observations | Map of weather stations | Latest weather observations for NT | Other Formats
Station Details ID: 014314 Name: NOONAMAH AIRSTRIP Lat: -12.61 Lon: 131.05 Height: 17.5 m
Data from the previous 72 hours. | See also: Recent months for locations in Northern Territory
Date/Time
CST
Temp
°C
App
Temp
°C
Dew
Point
Rel
Hum
%
Delta-T
°C
Wind Press
QNH
hPa
Press
MSL
hPa
Rain
since 9 am
mm
Dir
 
Spd
km/h
Gust
km/h
Spd
kts
Gust
kts
28/06:30am 23.8 27.1 22.6 93 0.8 WSW 9 13 5 7 1006.6 1006.4 39.6
28/06:00am 24.0 28.1 23.3 96 0.5 W 7 13 4 7 1006.3 1006.1 39.6
28/05:30am 24.0 28.1 23.3 96 0.5 WNW 7 11 4 6 1006.5 1006.3 39.6
28/05:00am 24.1 27.8 23.2 95 0.6 WNW 9 13 5 7 1006.3 1006.1 39.6
28/04:30am 24.8 30.1 24.3 97 0.3 NNW 4 6 2 3 1006.0 1005.8 39.6
28/04:00am 24.8 29.9 24.1 96 0.5 NW 4 7 2 4 1006.2 1006.0 39.6
28/03:30am 24.8 28.9 23.9 95 0.6 NNW 9 15 5 8 1006.4 1006.2 39.6
28/03:00am 24.7 29.2 23.7 94 0.7 NNW 6 9 3 5 1006.6 1006.4 39.6
28/02:30am 26.4 32.4 26.1 98 0.2 NW 6 9 3 5 1006.6 1006.4 39.6
28/02:00am 26.2 32.5 26.0 99 0.1 NNW 4 6 2 3 1006.4 1006.2 39.6
28/01:30am 26.3 32.7 26.1 99 0.1 NNW 4 6 2 3 1006.7 1006.5 39.6
28/01:00am 26.2 32.9 26.0 99 0.1 NNW 2 4 1 2 1007.1 1006.9 39.6
28/12:30am 26.2 32.9 25.9 98 0.2 N 2 4 1 2 1007.4 1007.2 39.6
28/12:00am 26.3 33.4 26.0 98 0.2 CALM 0 4 0 2 1007.4 1007.2 39.6
 
Date/Time
CST
Temp
°C
App
Temp
°C
Dew
Point
Rel
Hum
%
Delta-T
°C
Wind Press
QNH
hPa
Press
MSL
hPa
Rain
since 9 am
mm
Dir
 
Spd
km/h
Gust
km/h
Spd
kts
Gust
kts
27/11:30pm 26.6 33.9 26.3 98 0.2 CALM 0 0 0 0 1008.3 1008.1 39.6
27/11:00pm 26.6 33.1 26.3 98 0.2 NE 4 4 2 2 1008.5 1008.3 39.6
27/10:30pm 26.6 33.9 26.3 98 0.2 CALM 0 0 0 0 1008.9 1008.7 39.4
27/10:00pm 26.4 33.2 26.1 98 0.2 ENE 2 6 1 3 1008.6 1008.4 39.2
27/09:30pm 26.4 33.6 26.1 98 0.2 CALM 0 0 0 0 1008.1 1007.9 38.8
27/09:00pm 26.3 33.4 26.0 98 0.2 CALM 0 0 0 0 1007.6 1007.4 38.0
27/08:30pm 26.2 33.2 25.9 98 0.2 CALM 0 2 0 1 1007.1 1006.9 38.0
27/08:00pm 26.1 32.7 25.8 98 0.2 NE 2 4 1 2 1006.9 1006.7 38.0
27/07:30pm 26.0 32.5 25.7 98 0.2 N 2 2 1 1 1006.5 1006.3 38.0
27/07:00pm 25.9 32.0 25.6 98 0.2 NNE 4 6 2 3 1006.0 1005.8 38.0
27/06:30pm 25.8 31.8 25.5 98 0.2 NNW 4 6 2 3 1005.3 1005.1 38.0
27/06:00pm 25.9 32.4 25.6 98 0.2 NW 2 6 1 3 1005.0 1004.8 38.0
27/05:30pm 25.5 31.7 25.2 98 0.2 NE 2 4 1 2 1004.7 1004.5 38.0
27/05:00pm 25.2 31.3 25.0 99 0.1 W 2 6 1 3 1004.4 1004.2 38.0
27/04:30pm 24.6 29.5 24.3 98 0.2 NW 6 9 3 5 1004.2 1004.0 37.6
27/04:00pm 24.6 29.9 24.4 99 0.1 ENE 4 9 2 5 1004.6 1004.4 37.4
27/03:30pm 24.0 27.2 23.7 98 0.2 N 13 19 7 10 1005.6 1005.4 35.4
27/03:00pm 24.2 24.6 23.7 97 0.3 NNW 28 43 15 23 1006.2 1006.0 21.2
27/02:52pm 24.8 26.8 23.6 93 0.8 NNW 19 43 10 23 1005.7 1005.5 10.6
27/02:30pm 30.2 35.3 24.6 72 3.9 NNW 6 15 3 8 1004.3 1004.1 0.0
27/02:00pm 32.4 36.4 25.0 65 5.2 W 13 20 7 11 1004.7 1004.5 0.0
27/01:30pm 31.6 35.7 25.2 69 4.5 W 13 20 7 11 1005.4 1005.2 0.0
27/01:00pm 30.6 34.0 25.2 73 3.8 WSW 17 24 9 13 1005.7 1005.5 0.0
27/12:30pm 32.3 37.4 25.6 67 4.8 W 9 13 5 7 1006.4 1006.2 0.0
27/12:00pm 32.3 37.4 25.6 67 4.8 W 9 13 5 7 1007.0 1006.8 0.0
27/11:30am 31.7 36.7 24.8 67 4.9 W 7 13 4 7 1007.3 1007.1 0.0
27/11:00am 31.2 37.2 26.0 74 3.7 WNW 6 9 3 5 1007.6 1007.4 0.0
27/10:30am 30.4 36.1 25.9 77 3.2 W 7 11 4 6 1007.9 1007.7 0.0
27/10:00am 30.4 35.6 25.7 76 3.3 W 9 15 5 8 1007.7 1007.5 0.0
27/09:30am 29.4 35.5 26.2 83 2.3 WSW 6 9 3 5 1007.7 1007.5 0.0
27/09:00am 28.1 34.6 26.3 90 1.3 W 4 6 2 3 1007.6 1007.4 4.6
27/08:30am 27.0 34.3 26.3 96 0.5 CALM 0 0 0 0 1007.5 1007.3 4.6
27/08:00am 26.5 33.7 26.2 98 0.2 CALM 0 0 0 0 1007.1 1006.9 4.6
27/07:30am 26.1 33.1 25.8 98 0.2 CALM 0 2 0 1 1006.7 1006.5 4.6
27/07:00am 25.9 32.4 25.6 98 0.2 NNE 2 4 1 2 1006.2 1006.0 4.6
27/06:30am 26.1 32.6 25.6 97 0.4 ENE 2 6 1 3 1005.8 1005.6 4.6
27/06:00am 26.4 32.2 25.7 96 0.5 SW 6 9 3 5 1005.5 1005.3 4.6
27/05:30am 26.3 32.1 25.8 97 0.4 SSW 6 7 3 4 1005.4 1005.2 4.6
27/05:00am 26.5 32.8 26.0 97 0.4 SW 4 6 2 3 1005.2 1005.0 4.6
27/04:30am 26.6 33.0 26.1 97 0.4 W 4 6 2 3 1005.1 1004.9 4.6
27/04:00am 26.5 32.8 26.0 97 0.4 NW 4 6 2 3 1005.0 1004.8 4.6
27/03:30am 26.5 33.3 26.2 98 0.2 WNW 2 6 1 3 1005.4 1005.2 4.4
27/03:00am 26.7 33.5 26.2 97 0.4 ENE 2 4 1 2 1005.9 1005.7 4.0
27/02:30am 26.8 33.6 26.1 96 0.5 N 2 2 1 1 1006.3 1006.1 3.6
27/02:00am 26.9 34.1 26.2 96 0.5 CALM 0 0 0 0 1006.5 1006.3 3.6
27/01:30am 26.9 34.0 26.0 95 0.6 CALM 0 0 0 0 1007.1 1006.9 3.6
27/01:00am 26.9 33.6 26.0 95 0.6 NE 2 4 1 2 1007.7 1007.5 3.6
27/12:30am 26.9 33.2 25.9 94 0.7 NNW 4 6 2 3 1007.6 1007.4 3.6
27/12:00am 27.0 33.9 26.3 96 0.5 N 2 4 1 2 1008.1 1007.9 3.6
 
Date/Time
CST
Temp
°C
App
Temp
°C
Dew
Point
Rel
Hum
%
Delta-T
°C
Wind Press
QNH
hPa
Press
MSL
hPa
Rain
since 9 am
mm
Dir
 
Spd
km/h
Gust
km/h
Spd
kts
Gust
kts
26/11:30pm 27.1 34.3 26.2 95 0.6 CALM 0 4 0 2 1008.4 1008.2 3.6
26/11:00pm 27.1 34.1 26.4 96 0.5 WNW 2 4 1 2 1008.1 1007.9 3.6
26/10:30pm 27.3 34.7 26.4 95 0.6 CALM 0 0 0 0 1008.5 1008.3 3.6
26/10:00pm 27.2 34.4 26.1 94 0.8 CALM 0 2 0 1 1008.3 1008.1 3.6
26/09:30pm 27.1 33.0 26.2 95 0.6 NW 7 9 4 5 1006.7 1006.5 3.6
26/09:00pm 27.2 33.9 26.0 93 0.9 SSW 2 2 1 1 1007.2 1007.0 3.6
26/08:30pm 27.3 33.3 26.1 93 0.9 WSW 6 9 3 5 1006.4 1006.2 3.6
26/08:00pm 27.6 34.1 26.2 92 1.0 SW 4 6 2 3 1005.9 1005.7 3.6
26/07:30pm 27.7 34.8 26.6 94 0.8 W 2 4 1 2 1005.8 1005.6 3.6
26/07:00pm 27.6 34.8 26.7 95 0.6 W 2 2 1 1 1005.8 1005.6 3.6
26/06:30pm 27.3 33.8 26.2 94 0.8 NW 4 6 2 3 1005.4 1005.2 3.6
26/06:00pm 27.1 33.2 26.2 95 0.6 NNW 6 7 3 4 1004.9 1004.7 3.6
26/05:30pm 26.6 32.5 25.4 93 0.8 N 4 6 2 3 1004.9 1004.7 3.6
26/05:00pm 26.3 31.3 24.5 90 1.2 NW 6 7 3 4 1004.8 1004.6 3.6
26/04:30pm 26.3 31.0 23.4 84 2.0 NNW 4 6 2 3 1004.5 1004.3 3.6
26/04:00pm 25.5 28.9 23.4 88 1.4 NW 11 20 6 11 1004.6 1004.4 3.6
26/03:30pm 26.4 29.0 24.6 90 1.3 W 19 28 10 15 1004.8 1004.6 1.2
26/03:23pm 27.4 30.1 24.7 85 1.9 WSW 19 28 10 15 1004.6 1004.4 0.4
26/03:00pm 32.4 37.3 25.2 66 5.1 WNW 9 13 5 7 1004.2 1004.0 0.0
26/02:30pm 32.5 37.8 25.8 68 4.8 NW 9 17 5 9 1004.8 1004.6 0.0
26/02:00pm 31.8 36.4 25.4 69 4.5 NW 11 17 6 9 1005.3 1005.1 0.0
26/01:30pm 32.5 38.0 25.6 67 4.9 W 7 11 4 6 1005.8 1005.6 0.0
26/01:00pm 32.5 37.3 24.5 62 5.6 W 7 15 4 8 1006.4 1006.2 0.0
26/12:30pm 32.0 36.7 24.3 63 5.4 W 7 13 4 7 1007.1 1006.9 0.0
26/12:00pm 31.8 37.4 25.4 69 4.5 WNW 6 11 3 6 1007.5 1007.3 0.0
26/11:30am 30.9 35.9 24.8 70 4.3 WNW 7 15 4 8 1007.9 1007.7 0.0
26/11:00am 30.5 36.0 25.6 75 3.5 W 7 13 4 7 1008.1 1007.9 0.0
26/10:30am 29.6 35.0 25.4 78 3.0 WNW 7 9 4 5 1008.4 1008.2 0.0
26/10:00am 29.1 35.0 25.3 80 2.7 W 4 7 2 4 1008.6 1008.4 0.0
26/09:30am 27.8 33.6 25.2 86 1.8 WSW 4 6 2 3 1008.6 1008.4 0.0
26/09:00am 26.7 32.5 24.5 88 1.5 SW 2 4 1 2 1008.7 1008.5 5.4
26/08:30am 26.2 32.5 25.3 95 0.6 SE 2 4 1 2 1008.7 1008.5 5.4
26/08:00am 25.6 31.5 25.3 98 0.2 SSE 4 6 2 3 1007.9 1007.7 5.4
26/07:30am 25.1 31.5 24.9 99 0.1 CALM 0 0 0 0 1007.5 1007.3 5.4
26/07:00am 24.6 30.7 24.4 99 0.1 CALM 0 0 0 0 1007.2 1007.0 5.4
26/06:30am 24.6 30.7 24.4 99 0.1 CALM 0 0 0 0 1007.3 1007.1 5.4
26/06:00am 24.6 30.7 24.4 99 0.1 CALM 0 0 0 0 1007.2 1007.0 5.4
26/05:30am 24.7 30.8 24.5 99 0.1 CALM 0 2 0 1 1007.0 1006.8 5.2
26/05:00am 24.7 30.5 24.5 99 0.1 NNW 2 2 1 1 1006.4 1006.2 5.2
26/04:30am 24.7 30.1 24.5 99 0.1 NW 4 6 2 3 1006.5 1006.3 5.2
26/04:00am 24.8 30.9 24.5 98 0.2 CALM 0 0 0 0 1006.5 1006.3 5.2
26/03:30am 24.9 31.1 24.6 98 0.2 CALM 0 0 0 0 1006.6 1006.4 5.2
26/03:00am 25.1 31.4 24.8 98 0.2 CALM 0 0 0 0 1006.9 1006.7 5.2
26/02:30am 25.1 31.3 24.6 97 0.3 CALM 0 0 0 0 1006.9 1006.7 5.2
26/02:00am 25.2 30.7 24.7 97 0.3 S 4 6 2 3 1007.4 1007.2 5.2
26/01:30am 25.3 31.3 24.8 97 0.3 S 2 4 1 2 1007.5 1007.3 5.2
26/01:00am 25.5 32.0 25.0 97 0.3 CALM 0 0 0 0 1007.8 1007.6 5.2
26/12:30am 25.5 32.0 25.0 97 0.3 CALM 0 0 0 0 1007.8 1007.6 5.2
26/12:00am 25.7 32.3 25.2 97 0.3 CALM 0 0 0 0 1008.2 1008.0 5.2
 
Date/Time
CST
Temp
°C
App
Temp
°C
Dew
Point
Rel
Hum
%
Delta-T
°C
Wind Press
QNH
hPa
Press
MSL
hPa
Rain
since 9 am
mm
Dir
 
Spd
km/h
Gust
km/h
Spd
kts
Gust
kts
25/11:30pm 25.8 32.3 25.1 96 0.5 CALM 0 0 0 0 1008.5 1008.3 5.2
25/11:00pm 26.0 31.4 25.1 95 0.6 WSW 6 6 3 3 1008.3 1008.1 5.2
25/10:30pm 26.0 31.5 25.3 96 0.5 W 6 9 3 5 1008.2 1008.0 5.2
25/10:00pm 25.9 31.5 25.4 97 0.4 W 6 7 3 4 1008.3 1008.1 5.2
25/09:30pm 25.8 32.1 25.3 97 0.4 WSW 2 4 1 2 1008.1 1007.9 5.2
25/09:00pm 25.8 31.6 25.1 96 0.5 W 4 7 2 4 1008.0 1007.8 5.2
25/08:30pm 25.8 31.4 24.9 95 0.6 W 4 6 2 3 1007.9 1007.7 5.2
25/08:00pm 25.8 31.8 24.8 94 0.7 SSE 2 6 1 3 1007.8 1007.6 5.2
25/07:30pm 25.7 31.2 24.1 91 1.1 WSW 2 4 1 2 1007.5 1007.3 5.2
25/07:00pm 25.9 29.9 23.8 88 1.4 SSE 9 19 5 10 1007.5 1007.3 5.2
25/06:30pm 26.3 30.9 24.7 91 1.1 SSW 9 15 5 8 1007.6 1007.4 5.2
25/06:00pm 26.4 31.0 24.8 91 1.1 SW 9 15 5 8 1007.1 1006.9 5.2
25/05:30pm 26.5 30.7 25.3 93 0.8 SW 13 22 7 12 1006.7 1006.5 4.6
25/05:00pm 26.9 31.7 25.7 93 0.8 SW 11 17 6 9 1006.1 1005.9 4.0
25/04:30pm 29.3 33.2 24.2 74 3.6 SW 11 24 6 13 1005.8 1005.6 0.0
25/04:00pm 31.9 35.7 24.7 65 5.1 WNW 13 19 7 10 1005.3 1005.1 0.0
25/03:30pm 31.7 37.9 25.8 71 4.2 WSW 4 11 2 6 1005.8 1005.6 0.0
25/03:00pm 30.2 35.6 25.5 76 3.3 S 7 17 4 9 1005.9 1005.7 0.0
25/02:30pm 30.6 34.8 24.7 71 4.1 W 11 17 6 9 1006.1 1005.9 0.0
25/02:00pm 30.0 34.0 25.1 75 3.4 W 13 19 7 10 1006.6 1006.4 0.0
25/01:30pm 30.0 34.2 26.0 79 2.9 W 15 26 8 14 1007.5 1007.3 0.0
25/01:00pm 30.6 35.2 25.4 74 3.7 W 11 15 6 8 1008.1 1007.9 0.0
25/12:30pm 31.1 36.8 26.4 76 3.4 W 9 17 5 9 1008.8 1008.6 0.0
25/12:00pm 30.7 36.8 26.2 77 3.2 WNW 6 11 3 6 1009.3 1009.1 0.0
25/11:30am 30.4 36.0 25.7 76 3.3 W 7 11 4 6 1009.8 1009.6 0.0
25/11:00am 30.0 35.3 25.3 76 3.3 SW 7 13 4 7 1010.0 1009.8 0.0
25/10:30am 29.5 35.3 25.7 80 2.7 WSW 6 7 3 4 1010.1 1009.9 0.0
25/10:00am 29.0 35.2 25.8 83 2.3 SW 4 7 2 4 1010.2 1010.0 0.0
25/09:30am 28.5 35.8 26.3 88 1.6 CALM 0 2 0 1 1010.3 1010.1 0.0
25/09:00am 27.6 34.4 26.7 95 0.6 E 4 6 2 3 1010.4 1010.2 4.8
25/08:30am 27.0 33.8 26.7 98 0.2 E 4 4 2 2 1010.3 1010.1 4.8
25/08:00am 26.7 33.7 26.5 99 0.1 ENE 2 4 1 2 1010.2 1010.0 4.8
25/07:30am 26.6 33.2 26.4 99 0.1 E 4 4 2 2 1009.7 1009.5 4.8
25/07:00am 26.5 33.8 26.3 99 0.1 CALM 0 0 0 0 1009.1 1008.9 4.8

Other Formats:

Comma delimited format used in spreadsheet applications
http://www.bom.gov.au/fwo/IDD60801/IDD60801.94105.axf

JavaScript Object Notation format (JSON) in row-major order
http://www.bom.gov.au/fwo/IDD60801/IDD60801.94105.json